Time;durP1;ratioP1;P1;durP2;ratioP2;P2;SDS_P1;SDS_P2;PMS_P1;PMS_P2;Temp;Humidity;BMP_temperature;BMP_pressure;BME280_temperature;BME280_humidity;BME280_pressure;Samples;Min_cycle;Max_cycle;Signal;HPM_P1;HPM_P2
2020/12/05 00:01:53;;;;;;;48.57;24.47;;;;;;;;;;5035275;28;20279;-75
2020/12/05 00:04:19;;;;;;;49.60;26.37;;;;;;;;;;5058466;28;20685;-75
2020/12/05 00:06:45;;;;;;;48.33;25.87;;;;;;;;;;5057378;28;20339;-75
2020/12/05 00:09:12;;;;;;;48.53;26.37;;;;;;;;;;5059950;28;20279;-75
2020/12/05 00:11:38;;;;;;;45.77;23.93;;;;;;;;;;5044733;28;20641;-76
2020/12/05 00:14:04;;;;;;;46.73;25.90;;;;;;;;;;5040693;28;20267;-74
2020/12/05 00:16:30;;;;;;;54.90;27.10;;;;;;;;;;5038808;28;20287;-75
2020/12/05 00:18:57;;;;;;;54.37;26.03;;;;;;;;;;5036472;28;20274;-75
2020/12/05 00:21:23;;;;;;;54.43;27.13;;;;;;;;;;5053552;28;20275;-75
2020/12/05 00:23:50;;;;;;;68.73;29.97;;;;;;;;;;5039382;28;20267;-75
2020/12/05 00:26:16;;;;;;;62.83;30.20;;;;;;;;;;5044542;28;20917;-75
2020/12/05 00:28:42;;;;;;;67.67;32.07;;;;;;;;;;5038754;28;20353;-75
2020/12/05 00:31:09;;;;;;;68.40;30.60;;;;;;;;;;5059549;28;20274;-75
2020/12/05 00:33:35;;;;;;;61.30;29.23;;;;;;;;;;5057093;28;20268;-75
2020/12/05 00:36:02;;;;;;;69.83;31.60;;;;;;;;;;5061073;28;20871;-75
2020/12/05 00:38:28;;;;;;;76.83;34.70;;;;;;;;;;5058796;28;20290;-76
2020/12/05 00:40:54;;;;;;;69.73;30.87;;;;;;;;;;5047847;28;20259;-75
2020/12/05 00:43:21;;;;;;;77.07;32.87;;;;;;;;;;5042916;28;20685;-75
2020/12/05 00:45:47;;;;;;;78.50;34.77;;;;;;;;;;5037210;28;20275;-75
2020/12/05 00:48:13;;;;;;;79.17;34.57;;;;;;;;;;5052215;28;20335;-75
2020/12/05 00:50:39;;;;;;;74.57;31.60;;;;;;;;;;5043003;28;20263;-75
2020/12/05 00:53:05;;;;;;;77.43;32.70;;;;;;;;;;5055353;28;20772;-75
2020/12/05 00:55:31;;;;;;;78.07;36.00;;;;;;;;;;5045802;28;20328;-75
2020/12/05 00:57:57;;;;;;;102.83;39.57;;;;;;;;;;5062729;28;20291;-76
2020/12/05 01:00:23;;;;;;;104.17;42.10;;;;;;;;;;5040748;28;20280;-75
2020/12/05 01:02:49;;;;;;;112.97;44.07;;;;;;;;;;5056638;28;20275;-75
2020/12/05 01:05:16;;;;;;;88.03;38.20;;;;;;;;;;5058607;28;20448;-76
2020/12/05 01:07:42;;;;;;;90.17;37.53;;;;;;;;;;5058487;28;20271;-75
2020/12/05 01:10:08;;;;;;;97.60;40.97;;;;;;;;;;5039626;28;20326;-75
2020/12/05 01:12:34;;;;;;;91.07;40.47;;;;;;;;;;5061985;28;20809;-75
2020/12/05 01:15:03;;;;;;;95.27;39.83;;;;;;;;;;5063175;28;20784;-75
2020/12/05 01:17:32;;;;;;;104.13;44.10;;;;;;;;;;5068203;28;20386;-75
2020/12/05 01:19:58;;;;;;;100.20;43.53;;;;;;;;;;5049124;28;20274;-75
2020/12/05 01:22:24;;;;;;;97.50;42.73;;;;;;;;;;5050430;28;20302;-75
2020/12/05 01:24:51;;;;;;;102.77;40.10;;;;;;;;;;5042140;28;20271;-75
2020/12/05 01:27:18;;;;;;;97.43;41.87;;;;;;;;;;5060730;28;20271;-76
2020/12/05 01:29:44;;;;;;;97.73;41.37;;;;;;;;;;5046742;28;20271;-75
2020/12/05 01:32:10;;;;;;;91.27;43.30;;;;;;;;;;5043866;28;20689;-75
2020/12/05 01:34:36;;;;;;;99.63;39.57;;;;;;;;;;5066230;28;20812;-74
2020/12/05 01:37:03;;;;;;;92.97;41.20;;;;;;;;;;5049688;28;20294;-75
2020/12/05 01:39:29;;;;;;;89.33;39.57;;;;;;;;;;5065965;28;20476;-75
2020/12/05 01:41:55;;;;;;;85.97;38.47;;;;;;;;;;5039022;28;20272;-75
2020/12/05 01:44:21;;;;;;;81.57;37.53;;;;;;;;;;5068462;28;21177;-75
2020/12/05 01:46:48;;;;;;;88.50;38.10;;;;;;;;;;5059540;28;20302;-75
2020/12/05 01:49:18;;;;;;;84.30;37.47;;;;;;;;;;5064351;28;20271;-75
2020/12/05 01:51:47;;;;;;;81.00;35.97;;;;;;;;;;5047977;28;20262;-75
2020/12/05 01:54:13;;;;;;;77.17;36.37;;;;;;;;;;5050968;28;20263;-75
2020/12/05 01:56:39;;;;;;;71.47;35.60;;;;;;;;;;5063549;28;20283;-75
2020/12/05 01:59:06;;;;;;;81.97;36.63;;;;;;;;;;5058587;28;20277;-75
2020/12/05 02:01:33;;;;;;;72.40;33.60;;;;;;;;;;5066211;28;20316;-75
2020/12/05 02:04:03;;;;;;;77.83;34.93;;;;;;;;;;5049698;28;20262;-75
2020/12/05 02:06:32;;;;;;;68.77;35.60;;;;;;;;;;5043335;28;20341;-75
2020/12/05 02:09:15;;;;;;;73.90;33.23;;;;;;;;;;5046773;28;20275;-75
2020/12/05 02:11:42;;;;;;;70.47;34.08;;;;;;;;;;5049182;28;20279;-75
2020/12/05 02:14:10;;;;;;;73.57;33.77;;;;;;;;;;5048299;28;20039;-75
2020/12/05 02:16:39;;;;;;;69.10;34.07;;;;;;;;;;5047787;28;20305;-75
2020/12/05 02:19:06;;;;;;;76.20;36.23;;;;;;;;;;5041777;28;20290;-75
2020/12/05 02:21:32;;;;;;;86.37;37.53;;;;;;;;;;5039197;28;20344;-75
2020/12/05 02:23:59;;;;;;;74.10;36.47;;;;;;;;;;5047596;28;20270;-75
2020/12/05 02:26:27;;;;;;;77.20;36.00;;;;;;;;;;5054438;28;20270;-75
2020/12/05 02:28:53;;;;;;;72.90;36.27;;;;;;;;;;5043292;28;20278;-75
2020/12/05 02:31:19;;;;;;;69.47;32.93;;;;;;;;;;5043051;28;20271;-75
2020/12/05 02:33:45;;;;;;;70.77;35.60;;;;;;;;;;5065025;28;20309;-75
2020/12/05 02:36:11;;;;;;;70.87;33.57;;;;;;;;;;5065222;28;20294;-75
2020/12/05 02:38:55;;;;;;;75.37;33.93;;;;;;;;;;5066958;28;20630;-75
2020/12/05 02:41:21;;;;;;;46.60;23.30;;;;;;;;;;5066779;28;20258;-75
2020/12/05 02:43:48;;;;;;;63.57;32.00;;;;;;;;;;5049105;28;20028;-75
2020/12/05 02:46:14;;;;;;;71.87;35.00;;;;;;;;;;5041680;28;20255;-75
2020/12/05 02:48:40;;;;;;;69.27;32.20;;;;;;;;;;5048744;28;20251;-75
2020/12/05 02:51:06;;;;;;;68.87;33.33;;;;;;;;;;5044914;28;20269;-75
2020/12/05 02:53:32;;;;;;;61.97;32.00;;;;;;;;;;5049806;28;20606;-75
2020/12/05 02:55:58;;;;;;;73.63;33.10;;;;;;;;;;5047924;28;20333;-75
2020/12/05 02:58:25;;;;;;;73.37;35.07;;;;;;;;;;5061021;28;20764;-75
2020/12/05 03:00:51;;;;;;;63.30;31.60;;;;;;;;;;5042026;28;20260;-75
2020/12/05 03:03:17;;;;;;;60.60;32.30;;;;;;;;;;5049425;28;20412;-75
2020/12/05 03:05:43;;;;;;;54.60;29.40;;;;;;;;;;5049717;28;20335;-75
2020/12/05 03:08:09;;;;;;;72.77;33.53;;;;;;;;;;5060908;28;20332;-75
2020/12/05 03:10:35;;;;;;;59.83;30.20;;;;;;;;;;5048623;28;20267;-75
2020/12/05 03:13:01;;;;;;;52.83;28.23;;;;;;;;;;5051474;28;20259;-75
2020/12/05 03:15:27;;;;;;;62.30;31.60;;;;;;;;;;5051629;28;20270;-75
2020/12/05 03:17:53;;;;;;;55.47;31.87;;;;;;;;;;5044454;28;20287;-74
2020/12/05 03:20:19;;;;;;;54.23;29.20;;;;;;;;;;5043874;28;20266;-75
2020/12/05 03:22:45;;;;;;;47.97;24.83;;;;;;;;;;5049699;28;20305;-75
2020/12/05 03:25:11;;;;;;;52.47;28.37;;;;;;;;;;5051650;28;20590;-75
2020/12/05 03:27:37;;;;;;;55.57;28.90;;;;;;;;;;5068154;28;20278;-75
2020/12/05 03:30:05;;;;;;;51.20;25.27;;;;;;;;;;5066910;28;20316;-75
2020/12/05 03:32:31;;;;;;;46.70;25.77;;;;;;;;;;5062059;28;20908;-75
2020/12/05 03:35:00;;;;;;;49.70;26.87;;;;;;;;;;5041207;28;20671;-75
2020/12/05 03:37:27;;;;;;;47.07;24.30;;;;;;;;;;5068482;28;20278;-75
2020/12/05 03:39:54;;;;;;;53.03;27.07;;;;;;;;;;5069642;28;20251;-75
2020/12/05 03:42:20;;;;;;;43.90;24.27;;;;;;;;;;5069245;28;20254;-75
2020/12/05 03:44:46;;;;;;;52.00;29.77;;;;;;;;;;5051114;28;20298;-75
2020/12/05 03:47:12;;;;;;;48.40;25.23;;;;;;;;;;5047004;28;21016;-75
2020/12/05 03:49:38;;;;;;;53.90;27.37;;;;;;;;;;5038000;28;20259;-76
2020/12/05 03:52:04;;;;;;;49.83;25.90;;;;;;;;;;5041594;28;20269;-77
2020/12/05 03:54:31;;;;;;;49.23;26.57;;;;;;;;;;5050967;28;20397;-75
2020/12/05 03:56:57;;;;;;;53.57;29.37;;;;;;;;;;5037194;28;20315;-75
2020/12/05 03:59:23;;;;;;;54.40;29.57;;;;;;;;;;5063925;28;20281;-75
2020/12/05 04:01:49;;;;;;;53.43;27.30;;;;;;;;;;5044867;28;20676;-75
2020/12/05 04:04:15;;;;;;;62.70;32.80;;;;;;;;;;5064743;28;20375;-75
2020/12/05 04:06:41;;;;;;;61.83;30.43;;;;;;;;;;5043893;28;20642;-75
2020/12/05 04:09:07;;;;;;;65.43;35.23;;;;;;;;;;5047811;28;20255;-75
2020/12/05 04:11:37;;;;;;;58.97;29.77;;;;;;;;;;5049493;28;20859;-75
2020/12/05 04:14:04;;;;;;;67.60;35.33;;;;;;;;;;5048635;28;20271;-75
2020/12/05 04:16:30;;;;;;;63.70;35.03;;;;;;;;;;5048634;28;20282;-76
2020/12/05 04:18:56;;;;;;;61.57;33.93;;;;;;;;;;5064339;28;20333;-75
2020/12/05 04:21:22;;;;;;;57.33;32.03;;;;;;;;;;5062021;28;20255;-76
2020/12/05 04:23:48;;;;;;;58.70;31.87;;;;;;;;;;5094161;23;20302;-76
2020/12/05 04:26:14;;;;;;;62.97;33.57;;;;;;;;;;5072217;28;20312;-76
2020/12/05 04:28:40;;;;;;;63.07;33.50;;;;;;;;;;5070015;28;20806;-76
2020/12/05 04:31:06;;;;;;;51.30;30.70;;;;;;;;;;5090972;28;20269;-76
2020/12/05 04:33:33;;;;;;;55.33;32.37;;;;;;;;;;5073220;28;20277;-77
2020/12/05 04:35:59;;;;;;;51.60;31.67;;;;;;;;;;5094611;28;20286;-77
2020/12/05 04:38:25;;;;;;;49.13;29.97;;;;;;;;;;5076338;28;20282;-77
2020/12/05 04:40:55;;;;;;;44.53;27.30;;;;;;;;;;5094416;28;20272;-76
2020/12/05 04:43:21;;;;;;;38.13;24.43;;;;;;;;;;5076410;28;20276;-77
2020/12/05 04:45:47;;;;;;;38.37;23.37;;;;;;;;;;5083503;28;20323;-76
2020/12/05 04:48:14;;;;;;;36.20;25.13;;;;;;;;;;5075325;28;20274;-76
2020/12/05 04:50:44;;;;;;;43.30;26.80;;;;;;;;;;5056127;28;20291;-76
2020/12/05 04:53:12;;;;;;;33.33;22.27;;;;;;;;;;5055923;28;20325;-76
2020/12/05 04:55:42;;;;;;;34.43;22.27;;;;;;;;;;5093556;28;20659;-76
2020/12/05 04:58:17;;;;;;;35.37;23.43;;;;;;;;;;5075838;28;20700;-76
2020/12/05 05:00:45;;;;;;;36.33;23.53;;;;;;;;;;5073677;28;20608;-77
2020/12/05 05:03:14;;;;;;;27.87;18.27;;;;;;;;;;5073899;28;20728;-76
2020/12/05 05:05:40;;;;;;;30.97;19.90;;;;;;;;;;5075777;28;20255;-76
2020/12/05 05:08:06;;;;;;;28.90;18.73;;;;;;;;;;5091341;28;20254;-76
2020/12/05 05:10:35;;;;;;;28.37;18.97;;;;;;;;;;5055661;28;20258;-76
2020/12/05 05:13:20;;;;;;;28.23;17.43;;;;;;;;;;5076172;28;20780;-77
2020/12/05 05:15:46;;;;;;;26.53;17.60;;;;;;;;;;5075110;28;20281;-76
2020/12/05 05:18:13;;;;;;;30.87;19.43;;;;;;;;;;5086583;28;20742;-76
2020/12/05 05:20:43;;;;;;;27.70;18.03;;;;;;;;;;5071060;28;20500;-76
2020/12/05 05:23:14;;;;;;;29.80;17.77;;;;;;;;;;5085641;28;20318;-76
2020/12/05 05:25:52;;;;;;;27.73;18.87;;;;;;;;;;5070359;28;20266;-76
2020/12/05 05:28:22;;;;;;;28.70;18.83;;;;;;;;;;5076548;28;20269;-76
2020/12/05 05:30:56;;;;;;;28.40;19.30;;;;;;;;;;5074444;28;20307;-76
2020/12/05 05:33:23;;;;;;;27.53;19.00;;;;;;;;;;5075413;28;20269;-76
2020/12/05 05:35:49;;;;;;;30.67;19.73;;;;;;;;;;5073935;28;20687;-76
2020/12/05 05:38:22;;;;;;;32.67;20.60;;;;;;;;;;5075218;28;20858;-76
2020/12/05 05:40:49;;;;;;;34.85;21.33;;;;;;;;;;5074094;28;20263;-76
2020/12/05 05:43:18;;;;;;;30.73;19.93;;;;;;;;;;5075396;28;20022;-76
2020/12/05 05:45:44;;;;;;;36.87;20.63;;;;;;;;;;5092484;28;20265;-76
2020/12/05 05:48:11;;;;;;;36.10;21.33;;;;;;;;;;5075194;28;20278;-76
2020/12/05 05:50:37;;;;;;;45.70;23.57;;;;;;;;;;5093319;28;20811;-77
2020/12/05 05:53:04;;;;;;;35.93;20.57;;;;;;;;;;5093450;28;20255;-76
2020/12/05 05:55:48;;;;;;;35.60;21.23;;;;;;;;;;5075096;28;20247;-76
2020/12/05 05:58:16;;;;;;;29.90;17.90;;;;;;;;;;5092426;28;20262;-76
2020/12/05 06:00:43;;;;;;;36.43;20.10;;;;;;;;;;5093112;28;20299;-75
2020/12/05 06:03:17;;;;;;;30.63;18.30;;;;;;;;;;5069772;28;20287;-76
2020/12/05 06:05:43;;;;;;;;;;;;;;;;;;5075489;28;20281;-76
2020/12/05 06:08:09;;;;;;;30.83;19.83;;;;;;;;;;5079088;28;19904;-76
2020/12/05 06:10:35;;;;;;;28.83;17.57;;;;;;;;;;5086480;28;20028;-76
2020/12/05 06:13:02;;;;;;;34.77;19.77;;;;;;;;;;5067931;28;20333;-76
2020/12/05 06:15:28;;;;;;;29.90;17.37;;;;;;;;;;5074549;28;20269;-77
2020/12/05 06:17:58;;;;;;;31.93;20.30;;;;;;;;;;5070476;28;20282;-76
2020/12/05 06:20:28;;;;;;;30.07;18.73;;;;;;;;;;5071993;28;20265;-77
2020/12/05 06:23:00;;;;;;;28.87;17.57;;;;;;;;;;5073084;28;20783;-76
2020/12/05 06:25:26;;;;;;;33.27;21.27;;;;;;;;;;5092772;28;20349;-77
2020/12/05 06:28:04;;;;;;;30.57;19.73;;;;;;;;;;5092141;28;20273;-76
2020/12/05 06:30:31;;;;;;;28.63;18.80;;;;;;;;;;5071075;28;21735;-76
2020/12/05 06:32:57;;;;;;;32.47;19.37;;;;;;;;;;5076213;28;20315;-77
2020/12/05 06:35:23;;;;;;;31.43;19.87;;;;;;;;;;5072117;28;20274;-76
2020/12/05 06:37:57;;;;;;;32.60;21.37;;;;;;;;;;5092857;28;20314;-78
2020/12/05 06:40:23;;;;;;;34.23;21.43;;;;;;;;;;5094460;28;20772;-77
2020/12/05 06:42:52;;;;;;;32.57;20.20;;;;;;;;;;5070243;28;20337;-77
2020/12/05 06:45:27;;;;;;;30.83;19.27;;;;;;;;;;5087999;28;20308;-77
2020/12/05 06:47:54;;;;;;;28.10;19.97;;;;;;;;;;5088510;28;20274;-77
2020/12/05 06:50:32;;;;;;;29.37;19.70;;;;;;;;;;5069033;28;20282;-76
2020/12/05 06:53:00;;;;;;;28.17;19.10;;;;;;;;;;5062692;28;20278;-76
2020/12/05 06:55:31;;;;;;;24.37;17.17;;;;;;;;;;5065553;28;20262;-79
2020/12/05 06:58:04;;;;;;;26.97;17.70;;;;;;;;;;5074844;28;20361;-77
2020/12/05 07:00:35;;;;;;;36.03;21.92;;;;;;;;;;5076089;28;20760;-76
2020/12/05 07:03:01;;;;;;;37.57;23.13;;;;;;;;;;5074071;28;20099;-77
2020/12/05 07:05:41;;;;;;;28.00;18.30;;;;;;;;;;5093867;28;20254;-79
2020/12/05 07:08:21;;;;;;;26.57;17.40;;;;;;;;;;5094551;28;20262;-77
2020/12/05 07:10:49;;;;;;;26.67;18.13;;;;;;;;;;5093470;28;20258;-77
2020/12/05 07:13:20;;;;;;;34.50;22.57;;;;;;;;;;5073834;28;20259;-78
2020/12/05 07:15:46;;;;;;;37.25;24.70;;;;;;;;;;5061180;28;20270;-77
2020/12/05 07:18:39;;;;;;;33.30;20.73;;;;;;;;;;5094053;28;20823;-77
2020/12/05 07:21:05;;;;;;;27.30;17.93;;;;;;;;;;5069543;28;20305;-78
2020/12/05 07:23:32;;;;;;;27.10;18.50;;;;;;;;;;5093155;28;20813;-77
2020/12/05 07:25:59;;;;;;;28.20;18.70;;;;;;;;;;5076461;28;20394;-77
2020/12/05 07:28:25;;;;;;;28.40;18.80;;;;;;;;;;5070751;28;20278;-77
2020/12/05 07:30:51;;;;;;;24.13;17.47;;;;;;;;;;5066463;28;20806;-77
2020/12/05 07:33:24;;;;;;;22.57;15.23;;;;;;;;;;5089539;28;20740;-78
2020/12/05 07:36:20;;;;;;;20.05;14.75;;;;;;;;;;5062805;28;20305;-77
2020/12/05 07:38:47;;;;;;;27.87;17.00;;;;;;;;;;5054483;28;20024;-77
2020/12/05 07:41:13;;;;;;;23.67;16.03;;;;;;;;;;5071609;28;20266;-78
2020/12/05 07:43:39;;;;;;;21.23;15.03;;;;;;;;;;5064137;28;20258;-77
2020/12/05 07:46:08;;;;;;;26.27;17.43;;;;;;;;;;5059419;28;20281;-78
2020/12/05 07:48:35;;;;;;;21.67;14.57;;;;;;;;;;5067631;28;20267;-78
2020/12/05 07:51:07;;;;;;;26.30;18.33;;;;;;;;;;5084924;28;20266;-78
2020/12/05 07:53:34;;;;;;;23.60;15.27;;;;;;;;;;5064585;28;20265;-78
2020/12/05 07:56:16;;;;;;;22.63;15.70;;;;;;;;;;5075527;28;20270;-78
2020/12/05 07:58:50;;;;;;;25.93;18.37;;;;;;;;;;5075245;28;20258;-78
2020/12/05 08:01:22;;;;;;;;;;;;;;;;;;5075586;28;20266;-78
2020/12/05 08:04:01;;;;;;;21.03;14.20;;;;;;;;;;5055635;28;19947;-77
2020/12/05 08:06:50;;;;;;;27.30;17.63;;;;;;;;;;5054951;28;20293;-78
2020/12/05 08:09:20;;;;;;;30.97;19.07;;;;;;;;;;5088750;28;20322;-77
2020/12/05 08:11:50;;;;;;;21.53;14.87;;;;;;;;;;5078946;28;20360;-78
2020/12/05 08:14:16;;;;;;;30.83;18.43;;;;;;;;;;5079184;28;20277;-78
2020/12/05 08:16:43;;;;;;;26.27;15.83;;;;;;;;;;5078921;28;20293;-77
2020/12/05 08:19:09;;;;;;;57.90;29.40;;;;;;;;;;5079002;28;20263;-78
2020/12/05 08:21:35;;;;;;;55.37;30.17;;;;;;;;;;5089704;28;20266;-78
2020/12/05 08:24:11;;;;;;;64.90;36.07;;;;;;;;;;5062183;28;20279;-78
2020/12/05 08:26:38;;;;;;;41.10;23.10;;;;;;;;;;5079977;28;20262;-78
2020/12/05 08:29:08;;;;;;;40.27;21.00;;;;;;;;;;5069097;28;20760;-78
2020/12/05 08:31:44;;;;;;;35.73;19.53;;;;;;;;;;5063847;28;20258;-78
2020/12/05 08:34:10;;;;;;;44.90;24.07;;;;;;;;;;5067912;28;20293;-78
2020/12/05 08:36:44;;;;;;;51.30;25.60;;;;;;;;;;5065798;28;20282;-78
2020/12/05 08:39:10;;;;;;;;;;;;;;;;;;5084025;28;20316;-79
2020/12/05 08:41:54;;;;;;;23.33;17.07;;;;;;;;;;5078840;28;19908;-79
2020/12/05 08:44:21;;;;;;;16.77;12.30;;;;;;;;;;5059738;28;20021;-78
2020/12/05 08:47:00;;;;;;;18.77;14.50;;;;;;;;;;5062473;28;20286;-78
2020/12/05 08:49:26;;;;;;;20.33;15.13;;;;;;;;;;5092873;28;20345;-78
2020/12/05 08:51:54;;;;;;;23.10;14.57;;;;;;;;;;5079040;28;20273;-78
2020/12/05 08:54:20;;;;;;;25.13;15.13;;;;;;;;;;5079042;28;20273;-79
2020/12/05 08:56:46;;;;;;;17.87;11.43;;;;;;;;;;5083739;28;20286;-78
2020/12/05 08:59:24;;;;;;;19.57;12.20;;;;;;;;;;5096697;28;20262;-79
2020/12/05 09:01:53;;;;;;;18.37;12.20;;;;;;;;;;5064470;28;20262;-79
2020/12/05 09:04:27;;;;;;;20.33;13.43;;;;;;;;;;5077253;28;20266;-79
2020/12/05 09:06:53;;;;;;;28.83;17.23;;;;;;;;;;5075303;28;20963;-79
2020/12/05 09:09:31;;;;;;;32.13;17.47;;;;;;;;;;5078816;28;20039;-78
2020/12/05 09:12:06;;;;;;;25.90;15.00;;;;;;;;;;5097742;28;20559;-78
2020/12/05 09:14:33;;;;;;;27.67;15.53;;;;;;;;;;5090200;28;20267;-79
2020/12/05 09:16:59;;;;;;;27.00;16.50;;;;;;;;;;5074095;28;20318;-79
2020/12/05 09:19:27;;;;;;;23.83;15.77;;;;;;;;;;5077506;28;20266;-78
2020/12/05 09:21:55;;;;;;;26.20;15.23;;;;;;;;;;5058689;28;20266;-78
2020/12/05 09:24:21;;;;;;;24.57;15.90;;;;;;;;;;5072519;28;20276;-78
2020/12/05 09:27:00;;;;;;;17.57;12.47;;;;;;;;;;5072942;28;20035;-78
2020/12/05 09:29:26;;;;;;;24.80;15.23;;;;;;;;;;5072367;28;20293;-78
2020/12/05 09:31:55;;;;;;;24.17;13.73;;;;;;;;;;5095616;28;20273;-78
2020/12/05 09:34:37;;;;;;;17.43;13.10;;;;;;;;;;5068465;28;20024;-77
2020/12/05 09:37:11;;;;;;;29.07;17.37;;;;;;;;;;5070190;28;20794;-78
2020/12/05 09:39:38;;;;;;;19.73;13.00;;;;;;;;;;5078106;28;20262;-78
2020/12/05 09:42:04;;;;;;;17.17;12.37;;;;;;;;;;5072357;28;20378;-78
2020/12/05 09:49:34;;;;;;;17.93;10.50;;;;;;;;;;5087952;28;20298;-83
2020/12/05 09:52:00;;;;;;;15.50;9.37;;;;;;;;;;5089825;28;20020;-81
2020/12/05 09:54:27;;;;;;;15.53;11.30;;;;;;;;;;5087299;28;20270;-82
2020/12/05 09:56:55;;;;;;;16.40;10.97;;;;;;;;;;5090336;28;20293;-82
2020/12/05 09:59:21;;;;;;;14.30;9.93;;;;;;;;;;5074668;28;20628;-83
2020/12/05 10:01:47;;;;;;;28.83;14.77;;;;;;;;;;5074099;28;20274;-81
2020/12/05 10:04:16;;;;;;;16.57;10.00;;;;;;;;;;5070103;28;20315;-81
2020/12/05 10:06:42;;;;;;;34.23;17.63;;;;;;;;;;5072699;28;20323;-81
2020/12/05 10:09:08;;;;;;;38.40;18.07;;;;;;;;;;5078196;28;20645;-81
2020/12/05 10:11:35;;;;;;;17.60;11.97;;;;;;;;;;5068404;28;20333;-80
2020/12/05 10:14:02;;;;;;;12.80;9.00;;;;;;;;;;5074769;28;20271;-80
2020/12/05 10:16:32;;;;;;;13.23;9.03;;;;;;;;;;5076710;28;20330;-80
2020/12/05 10:18:58;;;;;;;14.77;11.03;;;;;;;;;;5076191;28;20394;-81
2020/12/05 10:21:24;;;;;;;14.90;11.30;;;;;;;;;;5074994;28;20031;-81
2020/12/05 10:23:50;;;;;;;15.70;11.73;;;;;;;;;;5076158;28;20366;-81
2020/12/05 10:26:17;;;;;;;16.37;11.47;;;;;;;;;;5074802;28;20407;-81
2020/12/05 10:28:43;;;;;;;17.87;13.13;;;;;;;;;;5075114;28;20271;-80
2020/12/05 10:31:11;;;;;;;15.93;11.97;;;;;;;;;;5074089;28;20211;-80
2020/12/05 10:33:37;;;;;;;18.47;13.73;;;;;;;;;;5076032;28;20032;-80
2020/12/05 10:36:03;;;;;;;15.23;12.23;;;;;;;;;;5074596;28;20032;-80
2020/12/05 10:38:29;;;;;;;13.13;9.47;;;;;;;;;;5073163;28;20030;-80
2020/12/05 10:40:56;;;;;;;13.00;9.03;;;;;;;;;;5075172;28;20078;-80
2020/12/05 10:43:22;;;;;;;14.00;10.37;;;;;;;;;;5074535;28;20119;-80
2020/12/05 10:45:48;;;;;;;15.47;10.50;;;;;;;;;;5074842;28;20031;-81
2020/12/05 10:48:14;;;;;;;17.70;9.90;;;;;;;;;;5071000;28;20036;-81
2020/12/05 10:50:40;;;;;;;13.43;8.73;;;;;;;;;;5075323;28;20075;-80
2020/12/05 10:53:07;;;;;;;15.10;9.77;;;;;;;;;;5064465;28;20024;-79
2020/12/05 10:55:33;;;;;;;15.43;8.20;;;;;;;;;;5076107;28;20037;-79
2020/12/05 10:58:02;;;;;;;13.23;8.70;;;;;;;;;;5076709;28;20043;-80
2020/12/05 11:00:28;;;;;;;14.83;9.40;;;;;;;;;;5091192;28;20035;-80
2020/12/05 11:02:54;;;;;;;18.57;11.70;;;;;;;;;;5071479;28;20024;-76
2020/12/05 11:05:22;;;;;;;21.93;12.47;;;;;;;;;;5087882;28;20020;-76
2020/12/05 11:07:49;;;;;;;15.43;8.60;;;;;;;;;;5082122;28;20282;-76
2020/12/05 11:10:15;;;;;;;16.87;10.33;;;;;;;;;;5086144;28;20302;-81
2020/12/05 11:12:41;;;;;;;20.67;11.37;;;;;;;;;;5095657;28;20271;-83
2020/12/05 11:15:07;;;;;;;17.00;10.70;;;;;;;;;;5076827;28;20354;-81
2020/12/05 11:17:33;;;;;;;17.03;10.30;;;;;;;;;;5078821;28;20290;-81
2020/12/05 11:19:59;;;;;;;16.27;10.23;;;;;;;;;;5084142;28;20350;-81
2020/12/05 11:22:25;;;;;;;17.37;10.73;;;;;;;;;;5088554;28;20775;-80
2020/12/05 11:24:54;;;;;;;18.87;11.63;;;;;;;;;;5076876;28;20305;-81
2020/12/05 11:27:20;;;;;;;21.03;11.90;;;;;;;;;;5069429;28;20286;-82
2020/12/05 11:29:46;;;;;;;19.43;11.67;;;;;;;;;;5076865;28;20267;-82
2020/12/05 11:32:13;;;;;;;18.03;10.70;;;;;;;;;;5079059;28;20286;-82
2020/12/05 11:34:39;;;;;;;17.63;11.03;;;;;;;;;;5076176;28;20266;-82
2020/12/05 11:37:10;;;;;;;17.60;11.03;;;;;;;;;;5076179;28;20313;-82
2020/12/05 11:39:41;;;;;;;18.07;11.30;;;;;;;;;;5070031;28;20270;-82
2020/12/05 11:42:08;;;;;;;19.60;11.40;;;;;;;;;;5076625;28;20278;-82
2020/12/05 11:44:35;;;;;;;21.80;12.40;;;;;;;;;;5087014;28;20278;-82
2020/12/05 11:47:01;;;;;;;18.87;11.40;;;;;;;;;;5082385;28;20350;-83
2020/12/05 11:49:28;;;;;;;20.60;13.37;;;;;;;;;;5080003;28;20278;-82
2020/12/05 11:52:02;;;;;;;19.97;12.37;;;;;;;;;;5079812;28;20271;-82
2020/12/05 11:54:28;;;;;;;25.13;14.60;;;;;;;;;;5080084;28;20279;-81
2020/12/05 11:56:54;;;;;;;24.90;13.37;;;;;;;;;;5078261;28;20293;-82
2020/12/05 11:59:21;;;;;;;21.23;13.50;;;;;;;;;;5079152;28;20772;-82
2020/12/05 12:01:47;;;;;;;22.13;13.53;;;;;;;;;;5082753;28;20328;-81
2020/12/05 12:04:15;;;;;;;22.90;14.23;;;;;;;;;;5074660;28;20598;-82
2020/12/05 12:06:45;;;;;;;25.33;16.07;;;;;;;;;;5086829;28;20258;-82
2020/12/05 12:09:11;;;;;;;29.07;17.03;;;;;;;;;;5084707;28;20787;-82
2020/12/05 12:11:37;;;;;;;23.87;15.27;;;;;;;;;;5084220;28;20262;-82
2020/12/05 12:14:03;;;;;;;22.40;14.20;;;;;;;;;;5093557;28;20277;-82
2020/12/05 12:16:31;;;;;;;30.20;16.33;;;;;;;;;;5082265;28;20313;-82
2020/12/05 12:18:57;;;;;;;22.07;14.03;;;;;;;;;;5081429;28;20266;-82
2020/12/05 12:21:26;;;;;;;25.43;15.37;;;;;;;;;;5084016;28;20299;-83
2020/12/05 12:23:53;;;;;;;25.23;15.27;;;;;;;;;;5080455;28;20306;-82
2020/12/05 12:26:19;;;;;;;25.17;16.13;;;;;;;;;;5079301;28;20606;-81
2020/12/05 12:28:46;;;;;;;27.70;16.57;;;;;;;;;;5078060;28;20770;-81
2020/12/05 12:31:12;;;;;;;24.20;14.13;;;;;;;;;;5070306;28;20255;-81
2020/12/05 12:33:39;;;;;;;25.93;16.03;;;;;;;;;;5079761;28;20262;-82
2020/12/05 12:36:05;;;;;;;22.57;14.07;;;;;;;;;;5081440;28;20455;-83
2020/12/05 12:38:31;;;;;;;24.87;16.33;;;;;;;;;;5076287;28;20298;-82
2020/12/05 12:40:57;;;;;;;28.83;16.40;;;;;;;;;;5081780;28;20323;-82
2020/12/05 12:43:23;;;;;;;25.10;16.57;;;;;;;;;;5080417;28;20743;-81
2020/12/05 12:45:51;;;;;;;26.30;15.50;;;;;;;;;;5076538;28;20290;-82
2020/12/05 12:50:49;;;;;;;26.47;16.50;;;;;;;;;;5076154;28;20267;-81
2020/12/05 12:53:21;;;;;;;25.27;15.40;;;;;;;;;;5075679;28;20270;-81
2020/12/05 12:55:47;;;;;;;25.10;15.30;;;;;;;;;;5074770;28;20634;-82
2020/12/05 13:00:51;;;;;;;24.00;15.37;;;;;;;;;;5087104;28;20263;-82
2020/12/05 13:03:18;;;;;;;24.50;15.80;;;;;;;;;;5088231;28;20266;-84
2020/12/05 13:05:44;;;;;;;23.07;14.83;;;;;;;;;;5090218;28;20787;-84
2020/12/05 13:08:12;;;;;;;21.13;12.57;;;;;;;;;;5077977;28;20263;-83
2020/12/05 13:10:38;;;;;;;21.17;13.37;;;;;;;;;;5079757;28;20329;-84
2020/12/05 13:13:05;;;;;;;26.80;16.90;;;;;;;;;;5085692;28;20269;-83
2020/12/05 13:15:31;;;;;;;22.10;15.07;;;;;;;;;;5080993;28;20294;-82
2020/12/05 13:17:57;;;;;;;20.37;11.50;;;;;;;;;;5077115;28;20765;-83
2020/12/05 13:20:23;;;;;;;19.90;12.77;;;;;;;;;;5078269;28;20391;-84
2020/12/05 13:22:49;;;;;;;23.47;13.33;;;;;;;;;;5078608;28;20324;-83
2020/12/05 13:25:15;;;;;;;19.93;12.03;;;;;;;;;;5065262;28;20309;-83
2020/12/05 13:27:41;;;;;;;21.67;13.23;;;;;;;;;;5091814;28;20271;-83
2020/12/05 13:30:07;;;;;;;20.03;13.00;;;;;;;;;;5080848;28;20271;-84
2020/12/05 13:32:35;;;;;;;20.97;13.07;;;;;;;;;;5085279;28;20274;-85
2020/12/05 13:35:01;;;;;;;20.23;12.80;;;;;;;;;;5101396;28;20819;-85
2020/12/05 13:37:27;;;;;;;20.00;12.93;;;;;;;;;;5093183;28;20290;-84
2020/12/05 13:39:57;;;;;;;22.43;15.03;;;;;;;;;;5085475;28;20255;-84
2020/12/05 13:42:32;;;;;;;18.47;12.93;;;;;;;;;;5073603;28;20266;-85
2020/12/05 13:45:01;;;;;;;19.73;11.70;;;;;;;;;;5009374;28;20267;-84
2020/12/05 13:47:27;;;;;;;21.93;13.27;;;;;;;;;;5034146;28;20340;-84
2020/12/05 13:49:53;;;;;;;18.23;11.63;;;;;;;;;;5046031;28;20824;-84
2020/12/05 13:52:19;;;;;;;19.07;12.53;;;;;;;;;;5028507;28;20288;-84
2020/12/05 13:54:46;;;;;;;18.80;12.53;;;;;;;;;;5029709;28;20280;-84
2020/12/05 13:57:12;;;;;;;18.03;11.70;;;;;;;;;;5039400;28;20426;-84
2020/12/05 13:59:38;;;;;;;21.33;13.13;;;;;;;;;;5038164;28;20279;-86
2020/12/05 14:02:05;;;;;;;19.33;12.23;;;;;;;;;;5029417;28;20358;-83
2020/12/05 14:04:32;;;;;;;19.80;12.00;;;;;;;;;;5037111;28;20284;-85
2020/12/05 14:07:02;;;;;;;18.20;12.03;;;;;;;;;;5033875;28;20713;-87
2020/12/05 14:09:30;;;;;;;18.73;12.13;;;;;;;;;;5037614;28;20276;-84
2020/12/05 14:12:01;;;;;;;17.40;10.63;;;;;;;;;;5035321;28;20310;-85
2020/12/05 14:14:29;;;;;;;19.97;11.63;;;;;;;;;;5036377;28;20280;-84
2020/12/05 14:16:56;;;;;;;17.07;11.03;;;;;;;;;;5046242;28;20291;-85
2020/12/05 14:19:23;;;;;;;18.93;10.90;;;;;;;;;;5038975;28;20371;-85
2020/12/05 14:21:53;;;;;;;18.17;11.50;;;;;;;;;;5042788;28;20276;-85
2020/12/05 14:24:21;;;;;;;18.43;11.47;;;;;;;;;;5034378;28;20273;-84
2020/12/05 14:26:47;;;;;;;21.13;12.60;;;;;;;;;;5035289;28;20303;-84
2020/12/05 14:29:23;;;;;;;21.43;12.63;;;;;;;;;;5038879;28;20366;-84
2020/12/05 14:31:49;;;;;;;16.97;10.57;;;;;;;;;;5047814;28;20276;-84
2020/12/05 14:34:18;;;;;;;20.80;12.40;;;;;;;;;;5053641;28;20359;-85